Íslenskir flugvellir

Veldu flugvelli í þeirri röð sem þeir eiga að birtast og styddu á hnappinn

Uppfært síðast 29.03.2020 - kl. 10:00

SIGMET síðustu 6 klst.

Engin SIGMET skeyti bárust síðustu 6 klst.

Egilsstaðir

METAR síðustu 3 klst

TímiSkeyti
2020-03-29 10.00METAR BIEG 291000Z 22017KT 9999 FEW045 BKN120 06/M02 Q1040
2020-03-29 09.00METAR BIEG 290900Z 22018KT 9999 FEW045 BKN120 05/M01 Q1040
2020-03-29 08.00METAR BIEG 290800Z 21021KT 9999 FEW042 BKN120 05/M02 Q1040

TAF

TAFBIEG2020-03-29 07.21Z29090920022KT 9999 FEW045 TX07/2915Z TN01/3006Z BECMG 2911/2913 27020G35KT CAVOK TEMPO 2913/2918 27035G50KT BECMG 2918/2921 18010KT

Allur vindur er réttvísandi bæði í Metar og frá sjálfvirkum veðurstöðvum




Aðrir tengdir vefir



Þetta vefsvæði byggir á Eplica